createdAt,value
2023-05-14T00:00:56.428Z,0.00
2023-05-14T00:01:56.412Z,0.00
2023-05-14T00:02:56.600Z,0.00
2023-05-14T00:03:56.500Z,0.00
2023-05-14T00:04:56.390Z,0.00
2023-05-14T00:05:56.375Z,0.00
2023-05-14T00:06:56.372Z,0.00
2023-05-14T00:07:56.369Z,0.00
2023-05-14T00:08:56.369Z,0.00
2023-05-14T00:09:56.360Z,0.00
2023-05-14T00:10:56.352Z,0.00
2023-05-14T00:11:56.330Z,0.00
2023-05-14T00:12:56.321Z,0.00
2023-05-14T00:13:56.320Z,0.00
2023-05-14T00:14:56.305Z,0.00
2023-05-14T00:15:56.386Z,0.00
2023-05-14T00:16:56.301Z,0.00
2023-05-14T00:17:56.309Z,0.00
2023-05-14T00:18:56.309Z,0.00
2023-05-14T00:19:56.269Z,0.00
2023-05-14T00:21:56.856Z,0.00
2023-05-14T00:22:56.866Z,0.00
2023-05-14T00:23:56.851Z,0.00
2023-05-14T00:24:56.842Z,0.00
2023-05-14T00:25:56.841Z,0.00
2023-05-14T00:26:56.825Z,0.00
2023-05-14T00:27:56.826Z,0.00
2023-05-14T00:28:56.820Z,0.00
2023-05-14T00:29:56.811Z,0.00
2023-05-14T00:30:56.811Z,0.00
2023-05-14T00:31:56.783Z,0.00
2023-05-14T00:32:56.922Z,0.00
2023-05-14T00:33:56.768Z,0.00
2023-05-14T00:34:56.770Z,0.00
2023-05-14T00:35:56.750Z,0.00
2023-05-14T00:36:56.739Z,0.00
2023-05-14T00:37:56.739Z,0.00
2023-05-14T00:38:56.723Z,0.00
2023-05-14T00:39:56.728Z,0.00
2023-05-14T00:40:56.712Z,0.00
2023-05-14T00:41:56.707Z,0.00
2023-05-14T00:42:56.732Z,0.00
2023-05-14T00:43:56.684Z,0.00
2023-05-14T00:44:56.685Z,0.00
2023-05-14T00:45:56.682Z,0.00
2023-05-14T00:46:56.732Z,0.00
2023-05-14T00:47:56.708Z,0.00
2023-05-14T00:48:56.660Z,0.00
2023-05-14T00:49:56.635Z,0.00
2023-05-14T00:50:56.633Z,0.00
2023-05-14T00:51:56.617Z,0.00
2023-05-14T00:52:56.617Z,0.00
2023-05-14T00:53:56.612Z,0.00
2023-05-14T00:54:56.635Z,0.00
2023-05-14T00:55:56.597Z,0.00
2023-05-14T00:56:56.580Z,0.00
2023-05-14T00:57:56.574Z,0.00
2023-05-14T00:58:56.563Z,0.00
2023-05-14T00:59:56.573Z,0.00
2023-05-14T01:00:56.589Z,0.00
2023-05-14T01:01:56.538Z,0.00
2023-05-14T01:02:56.630Z,0.00
2023-05-14T01:03:56.686Z,0.00
2023-05-14T01:04:56.530Z,0.00
2023-05-14T01:05:56.503Z,0.00
2023-05-14T01:06:56.504Z,0.00
2023-05-14T01:07:56.486Z,0.00
2023-05-14T01:08:56.482Z,0.00
2023-05-14T01:09:56.478Z,0.00
2023-05-14T01:10:56.469Z,0.00
2023-05-14T01:11:56.465Z,0.00
2023-05-14T01:12:56.469Z,0.00
2023-05-14T01:13:57.547Z,0.00
2023-05-14T01:14:57.540Z,0.00
2023-05-14T01:15:57.534Z,0.00
2023-05-14T01:16:57.546Z,0.00
2023-05-14T01:17:57.516Z,0.00
2023-05-14T01:18:57.624Z,0.00
2023-05-14T01:19:57.487Z,0.00
2023-05-14T01:20:57.479Z,0.00
2023-05-14T01:21:57.482Z,0.00
2023-05-14T01:22:57.475Z,0.00
2023-05-14T01:23:57.479Z,0.00
2023-05-14T01:24:57.447Z,0.00
2023-05-14T01:25:57.442Z,0.00
2023-05-14T01:26:57.438Z,0.00
2023-05-14T01:27:57.419Z,0.00
2023-05-14T01:28:57.430Z,0.00
2023-05-14T01:29:57.408Z,0.00
2023-05-14T01:30:57.394Z,0.00
2023-05-14T01:31:57.464Z,0.00
2023-05-14T01:32:57.394Z,0.00
2023-05-14T01:33:57.370Z,0.00
2023-05-14T01:34:58.002Z,0.00
2023-05-14T01:35:57.371Z,0.00
2023-05-14T01:36:57.378Z,0.00
2023-05-14T01:37:57.346Z,0.00
2023-05-14T01:38:57.328Z,0.00
2023-05-14T01:39:57.889Z,0.00
2023-05-14T01:40:57.345Z,0.00
2023-05-14T01:41:57.313Z,0.00
2023-05-14T01:42:57.333Z,0.00
2023-05-14T01:43:57.314Z,0.00
2023-05-14T01:44:57.328Z,0.00
2023-05-14T01:45:57.331Z,0.00
2023-05-14T01:46:57.265Z,0.00
2023-05-14T01:47:57.297Z,0.00
2023-05-14T01:48:57.252Z,0.00
2023-05-14T01:49:57.238Z,0.00
2023-05-14T01:50:57.267Z,0.00
2023-05-14T01:51:57.236Z,0.00
2023-05-14T01:52:57.222Z,0.00
2023-05-14T01:53:57.210Z,0.00
2023-05-14T01:54:57.199Z,0.00
2023-05-14T01:55:57.203Z,0.00
2023-05-14T01:56:57.211Z,0.00
2023-05-14T01:57:57.176Z,0.00
2023-05-14T01:58:57.215Z,0.00
2023-05-14T01:59:57.164Z,0.00
2023-05-14T02:00:57.172Z,0.00
2023-05-14T02:01:57.212Z,0.00
2023-05-14T02:02:57.168Z,0.00
2023-05-14T02:03:57.176Z,0.00
2023-05-14T02:04:57.115Z,0.00
2023-05-14T02:05:57.128Z,0.00
2023-05-14T02:06:57.096Z,0.00
2023-05-14T02:07:57.096Z,0.00
2023-05-14T02:08:57.097Z,0.00
2023-05-14T02:09:57.078Z,0.00
2023-05-14T02:10:57.077Z,0.00
2023-05-14T02:11:57.080Z,0.00
2023-05-14T02:12:57.054Z,0.00
2023-05-14T02:13:57.075Z,0.00
2023-05-14T02:14:57.047Z,0.00
2023-05-14T02:15:57.047Z,0.00
2023-05-14T02:16:57.032Z,0.00
2023-05-14T02:17:57.133Z,0.00
2023-05-14T02:18:57.037Z,0.00
2023-05-14T02:19:57.018Z,0.00
2023-05-14T02:20:56.995Z,0.00
2023-05-14T02:21:56.997Z,0.00
2023-05-14T02:22:56.977Z,0.00
2023-05-14T02:23:56.973Z,0.00
2023-05-14T02:24:56.970Z,0.00
2023-05-14T02:25:56.964Z,0.00
2023-05-14T02:26:56.957Z,0.00
2023-05-14T02:27:56.938Z,0.00
2023-05-14T02:28:56.950Z,0.00
2023-05-14T02:29:56.929Z,0.00
2023-05-14T02:30:56.922Z,0.00
2023-05-14T02:31:57.152Z,0.00
2023-05-14T02:32:56.965Z,0.00
2023-05-14T02:33:56.901Z,0.00
2023-05-14T02:34:56.901Z,0.00
2023-05-14T02:35:56.891Z,0.00
2023-05-14T02:36:56.883Z,0.00
2023-05-14T02:37:56.871Z,0.00
2023-05-14T02:38:57.854Z,0.00
2023-05-14T02:39:56.862Z,0.00
2023-05-14T02:40:56.863Z,0.00
2023-05-14T02:41:56.849Z,0.00
2023-05-14T02:42:56.832Z,0.00
2023-05-14T02:43:56.832Z,0.00
2023-05-14T02:44:56.823Z,0.00
2023-05-14T02:45:56.819Z,0.00
2023-05-14T02:46:56.838Z,0.00
2023-05-14T02:47:56.816Z,0.00
2023-05-14T02:48:56.776Z,0.00
2023-05-14T02:49:56.774Z,0.00
2023-05-14T02:50:56.766Z,0.00
2023-05-14T02:51:56.772Z,4.00
2023-05-14T02:52:56.744Z,4.00
2023-05-14T02:53:56.741Z,4.00
2023-05-14T02:54:56.733Z,0.00
2023-05-14T02:55:56.746Z,0.00
2023-05-14T02:56:56.728Z,4.00
2023-05-14T02:57:57.465Z,4.00
2023-05-14T02:58:56.723Z,4.00
2023-05-14T02:59:56.692Z,4.00
2023-05-14T03:00:56.701Z,4.00
2023-05-14T03:01:56.731Z,4.00
2023-05-14T03:02:56.720Z,8.00
2023-05-14T03:03:56.673Z,4.00
2023-05-14T03:04:56.668Z,8.00
2023-05-14T03:05:56.673Z,8.00
2023-05-14T03:06:56.643Z,12.00
2023-05-14T03:07:56.637Z,8.00
2023-05-14T03:08:56.637Z,12.00
2023-05-14T03:09:56.630Z,16.00
2023-05-14T03:10:56.611Z,16.00
2023-05-14T03:11:56.599Z,16.00
2023-05-14T03:12:56.611Z,20.00
2023-05-14T03:13:56.581Z,20.00
2023-05-14T03:14:56.587Z,24.00
2023-05-14T03:15:56.565Z,28.00
2023-05-14T03:16:56.609Z,32.00
2023-05-14T03:17:56.616Z,40.00
2023-05-14T03:18:56.573Z,44.00
2023-05-14T03:19:56.559Z,48.00
2023-05-14T03:20:56.539Z,56.00
2023-05-14T03:21:56.526Z,60.00
2023-05-14T03:22:56.534Z,68.00
2023-05-14T03:23:57.460Z,76.00
2023-05-14T03:24:56.499Z,80.00
2023-05-14T03:25:56.492Z,88.00
2023-05-14T03:26:56.500Z,96.00
2023-05-14T03:27:56.471Z,108.00
2023-05-14T03:28:56.479Z,116.00
2023-05-14T03:29:56.454Z,120.00
2023-05-14T03:30:56.486Z,128.00
2023-05-14T03:31:56.485Z,136.00
2023-05-14T03:32:56.482Z,148.00
2023-05-14T03:33:56.432Z,160.00
2023-05-14T03:34:57.042Z,172.00
2023-05-14T03:35:57.036Z,180.00
2023-05-14T03:36:56.397Z,192.00
2023-05-14T03:37:56.414Z,204.00
2023-05-14T03:38:56.381Z,212.00
2023-05-14T03:39:56.375Z,224.00
2023-05-14T03:40:56.377Z,232.00
2023-05-14T03:41:56.366Z,240.00
2023-05-14T03:42:56.355Z,244.00
2023-05-14T03:43:57.038Z,256.00
2023-05-14T03:44:56.346Z,268.00
2023-05-14T03:45:56.353Z,276.00
2023-05-14T03:46:56.333Z,292.00
2023-05-14T03:47:56.354Z,308.00
2023-05-14T03:48:56.359Z,332.00
2023-05-14T03:49:56.298Z,356.00
2023-05-14T03:50:56.300Z,384.00
2023-05-14T03:51:56.280Z,420.00
2023-05-14T03:52:56.262Z,456.00
2023-05-14T03:53:57.257Z,488.00
2023-05-14T03:54:56.278Z,516.00
2023-05-14T03:55:56.249Z,572.00
2023-05-14T03:56:56.316Z,1024.00
2023-05-14T03:57:56.232Z,1716.00
2023-05-14T03:58:56.235Z,1440.00
2023-05-14T03:59:56.247Z,916.00
2023-05-14T04:00:56.261Z,728.00
2023-05-14T04:01:56.206Z,880.00
2023-05-14T04:02:56.255Z,900.00
2023-05-14T04:03:56.246Z,980.00
2023-05-14T04:04:56.325Z,1188.00
2023-05-14T04:05:56.240Z,1264.00
2023-05-14T04:06:56.168Z,1316.00
2023-05-14T04:07:56.160Z,1408.00
2023-05-14T04:08:56.151Z,1472.00
2023-05-14T04:09:56.138Z,1488.00
2023-05-14T04:10:56.141Z,1504.00
2023-05-14T04:11:56.151Z,1488.00
2023-05-14T04:12:56.126Z,1460.00
2023-05-14T04:13:56.139Z,1468.00
2023-05-14T04:14:56.096Z,1468.00
2023-05-14T04:15:56.164Z,1468.00
2023-05-14T04:16:56.092Z,1324.00
2023-05-14T04:17:56.090Z,1244.00
2023-05-14T04:18:56.094Z,1236.00
2023-05-14T04:19:57.041Z,1244.00
2023-05-14T04:20:56.043Z,1260.00
2023-05-14T04:21:56.045Z,1276.00
2023-05-14T04:22:56.035Z,1288.00
2023-05-14T04:23:56.023Z,1308.00
2023-05-14T04:24:56.022Z,1332.00
2023-05-14T04:25:56.971Z,1352.00
2023-05-14T04:26:56.009Z,1376.00
2023-05-14T04:27:55.993Z,1400.00
2023-05-14T04:28:55.993Z,1432.00
2023-05-14T04:29:55.973Z,1460.00
2023-05-14T04:30:56.975Z,1492.00
2023-05-14T04:31:56.042Z,1512.00
2023-05-14T04:32:55.991Z,1528.00
2023-05-14T04:33:55.945Z,1540.00
2023-05-14T04:34:55.956Z,1544.00
2023-05-14T04:35:55.936Z,1556.00
2023-05-14T04:36:55.931Z,1568.00
2023-05-14T04:37:55.911Z,1584.00
2023-05-14T04:38:55.907Z,1600.00
2023-05-14T04:39:55.913Z,1632.00
2023-05-14T04:40:55.883Z,1668.00
2023-05-14T04:41:55.884Z,1704.00
2023-05-14T04:42:55.877Z,1740.00
2023-05-14T04:43:55.861Z,1776.00
2023-05-14T04:44:55.856Z,1812.00
2023-05-14T04:45:56.499Z,1856.00
2023-05-14T04:46:55.857Z,1892.00
2023-05-14T04:47:56.609Z,1912.00
2023-05-14T04:48:55.838Z,1916.00
2023-05-14T04:49:55.822Z,1912.00
2023-05-14T04:50:55.809Z,1912.00
2023-05-14T04:51:56.470Z,1924.00
2023-05-14T04:52:55.812Z,1948.00
2023-05-14T04:53:55.791Z,1976.00
2023-05-14T04:54:55.771Z,2012.00
2023-05-14T04:55:55.779Z,2036.00
2023-05-14T04:56:55.760Z,2056.00
2023-05-14T04:57:55.749Z,2072.00
2023-05-14T04:58:55.741Z,2084.00
2023-05-14T04:59:55.733Z,2108.00
2023-05-14T05:00:55.759Z,2128.00
2023-05-14T05:01:55.735Z,2156.00
2023-05-14T05:02:55.781Z,2184.00
2023-05-14T05:03:55.728Z,2224.00
2023-05-14T05:04:55.706Z,2284.00
2023-05-14T05:05:55.686Z,2352.00
2023-05-14T05:06:55.695Z,2420.00
2023-05-14T05:07:55.686Z,2492.00
2023-05-14T05:08:55.659Z,2556.00
2023-05-14T05:09:55.669Z,2620.00
2023-05-14T05:10:55.670Z,2684.00
2023-05-14T05:11:55.668Z,2744.00
2023-05-14T05:12:55.648Z,2792.00
2023-05-14T05:13:56.478Z,2840.00
2023-05-14T05:14:55.618Z,2896.00
2023-05-14T05:15:55.624Z,2976.00
2023-05-14T05:16:55.612Z,3064.00
2023-05-14T05:17:55.603Z,3152.00
2023-05-14T05:18:55.625Z,3220.00
2023-05-14T05:19:55.580Z,3276.00
2023-05-14T05:20:55.575Z,3316.00
2023-05-14T05:21:55.564Z,3352.00
2023-05-14T05:22:55.556Z,3404.00
2023-05-14T05:23:55.558Z,3460.00
2023-05-14T05:24:55.539Z,3532.00
2023-05-14T05:25:55.526Z,3604.00
2023-05-14T05:26:55.526Z,3676.00
2023-05-14T05:27:55.526Z,3756.00
2023-05-14T05:28:55.516Z,3868.00
2023-05-14T05:29:55.528Z,3992.00
2023-05-14T05:30:55.516Z,4124.00
2023-05-14T05:31:55.617Z,4272.00
2023-05-14T05:32:55.518Z,4444.00
2023-05-14T05:33:55.498Z,4632.00
2023-05-14T05:34:55.467Z,4824.00
2023-05-14T05:35:55.465Z,5040.00
2023-05-14T05:36:55.452Z,5300.00
2023-05-14T05:37:55.455Z,5596.00
2023-05-14T05:38:55.453Z,5896.00
2023-05-14T05:39:56.065Z,6184.00
2023-05-14T05:40:55.414Z,6424.00
2023-05-14T05:41:55.417Z,6616.00
2023-05-14T05:42:55.405Z,6776.00
2023-05-14T05:43:55.383Z,6896.00
2023-05-14T05:44:55.441Z,7048.00
2023-05-14T05:45:55.383Z,7252.00
2023-05-14T05:46:55.412Z,7448.00
2023-05-14T05:47:55.417Z,7624.00
2023-05-14T05:48:55.344Z,7812.00
2023-05-14T05:49:55.326Z,8056.00
2023-05-14T05:50:55.335Z,8308.00
2023-05-14T05:51:55.371Z,8456.00
2023-05-14T05:52:55.322Z,8720.00
2023-05-14T05:53:55.299Z,9048.00
2023-05-14T05:54:55.298Z,9372.00
2023-05-14T05:55:55.292Z,9672.00
2023-05-14T05:56:55.284Z,9980.00
2023-05-14T05:57:55.280Z,10284.00
2023-05-14T05:58:55.296Z,10556.00
2023-05-14T05:59:55.260Z,10740.00
2023-05-14T06:00:55.258Z,10872.00
2023-05-14T06:03:02.165Z,10980.00
2023-05-14T06:04:02.131Z,11012.00
2023-05-14T06:05:02.187Z,11104.00
2023-05-14T06:06:02.108Z,11168.00
2023-05-14T06:07:02.076Z,11264.00
2023-05-14T06:08:02.105Z,11408.00
2023-05-14T06:09:02.961Z,11584.00
2023-05-14T06:10:02.049Z,11792.00
2023-05-14T06:11:03.146Z,12064.00
2023-05-14T06:12:03.132Z,12412.00
2023-05-14T06:13:03.138Z,12796.00
2023-05-14T06:14:03.123Z,13092.00
2023-05-14T06:15:03.095Z,13404.00
2023-05-14T06:16:03.156Z,13776.00
2023-05-14T06:17:03.107Z,14152.00
2023-05-14T06:18:03.158Z,14584.00
2023-05-14T06:19:03.244Z,15068.00
2023-05-14T06:20:03.057Z,15568.00
2023-05-14T06:21:03.060Z,16704.00
2023-05-14T06:22:03.038Z,17280.00
2023-05-14T06:23:03.043Z,18528.00
2023-05-14T06:24:03.034Z,19968.00
2023-05-14T06:25:03.010Z,23584.00
2023-05-14T06:26:03.009Z,20896.00
2023-05-14T06:27:02.993Z,21216.00
2023-05-14T06:28:02.991Z,21760.00
2023-05-14T06:29:02.985Z,22464.00
2023-05-14T06:30:02.966Z,22752.00
2023-05-14T06:31:02.950Z,22944.00
2023-05-14T06:32:03.010Z,22880.00
2023-05-14T06:33:02.997Z,22560.00
2023-05-14T06:34:02.943Z,22624.00
2023-05-14T06:35:02.951Z,23584.00
2023-05-14T06:36:02.925Z,27744.00
2023-05-14T06:37:02.936Z,32416.00
2023-05-14T06:38:02.907Z,27776.00
2023-05-14T06:39:02.892Z,30400.00
2023-05-14T06:40:02.917Z,34016.00
2023-05-14T06:41:02.875Z,48928.00
2023-05-14T06:42:02.885Z,52512.00
2023-05-14T06:43:03.552Z,33472.00
2023-05-14T06:44:02.853Z,49504.00
2023-05-14T06:45:02.853Z,40576.00
2023-05-14T06:46:02.859Z,46848.00
2023-05-14T06:47:02.840Z,47008.00
2023-05-14T06:48:02.926Z,45312.00
2023-05-14T06:49:02.862Z,46720.00
2023-05-14T06:50:02.831Z,24352.00
2023-05-14T06:51:02.812Z,27456.00
2023-05-14T06:52:03.473Z,45376.00
2023-05-14T06:53:02.786Z,46208.00
2023-05-14T06:54:02.771Z,31936.00
2023-05-14T06:55:02.765Z,41152.00
2023-05-14T06:56:02.757Z,49312.00
2023-05-14T06:57:02.742Z,43488.00
2023-05-14T06:58:02.785Z,44448.00
2023-05-14T06:59:02.747Z,63264.00
2023-05-14T07:00:03.688Z,68352.00
2023-05-14T07:01:03.764Z,43296.00
2023-05-14T07:02:02.712Z,39904.00
2023-05-14T07:03:02.776Z,34560.00
2023-05-14T07:04:02.716Z,33088.00
2023-05-14T07:05:02.696Z,34944.00
2023-05-14T07:06:02.671Z,40288.00
2023-05-14T07:07:02.669Z,40960.00
2023-05-14T07:08:02.682Z,45888.00
2023-05-14T07:09:02.657Z,44000.00
2023-05-14T07:10:02.667Z,47904.00
2023-05-14T07:11:02.657Z,46400.00
2023-05-14T07:12:02.649Z,45088.00
2023-05-14T07:13:02.618Z,45024.00
2023-05-14T07:14:02.641Z,45568.00
2023-05-14T07:15:02.640Z,44544.00
2023-05-14T07:16:02.629Z,43808.00
2023-05-14T07:17:02.603Z,42624.00
2023-05-14T07:18:02.642Z,41920.00
2023-05-14T07:19:02.607Z,41888.00
2023-05-14T07:20:02.559Z,40832.00
2023-05-14T07:21:02.583Z,40672.00
2023-05-14T07:22:02.577Z,41024.00
2023-05-14T07:23:02.586Z,40960.00
2023-05-14T07:24:02.542Z,39488.00
2023-05-14T07:25:02.521Z,38912.00
2023-05-14T07:26:02.521Z,38976.00
2023-05-14T07:27:02.534Z,38944.00
2023-05-14T07:28:03.083Z,35712.00
2023-05-14T07:29:03.499Z,33152.00
2023-05-14T07:30:02.501Z,36032.00
2023-05-14T07:31:02.524Z,35296.00
2023-05-14T07:32:02.491Z,36064.00
2023-05-14T07:33:02.481Z,36704.00
2023-05-14T07:34:02.499Z,35840.00
2023-05-14T07:35:02.451Z,35840.00
2023-05-14T07:36:02.450Z,36064.00
2023-05-14T07:37:02.460Z,35904.00
2023-05-14T07:38:02.434Z,35392.00
2023-05-14T07:39:02.432Z,36448.00
2023-05-14T07:40:02.424Z,35872.00
2023-05-14T07:41:02.408Z,35552.00
2023-05-14T07:42:02.399Z,35904.00
2023-05-14T07:43:02.394Z,36576.00
2023-05-14T07:44:02.488Z,36000.00
2023-05-14T07:45:02.420Z,34912.00
2023-05-14T07:46:02.384Z,33696.00
2023-05-14T07:47:02.392Z,30048.00
2023-05-14T07:48:02.415Z,25856.00
2023-05-14T07:49:02.356Z,24416.00
2023-05-14T07:50:02.377Z,22784.00
2023-05-14T07:51:02.344Z,21120.00
2023-05-14T07:52:02.347Z,20480.00
2023-05-14T07:53:02.321Z,20000.00
2023-05-14T07:54:02.313Z,20288.00
2023-05-14T07:55:02.309Z,18880.00
2023-05-14T07:56:02.293Z,13752.00
2023-05-14T07:57:02.322Z,16256.00
2023-05-14T07:58:02.298Z,17344.00
2023-05-14T07:59:03.092Z,11976.00
2023-05-14T08:00:02.288Z,12640.00
2023-05-14T08:01:02.265Z,12464.00
2023-05-14T08:02:02.295Z,12496.00
2023-05-14T08:03:02.401Z,16672.00
2023-05-14T08:04:02.328Z,15472.00
2023-05-14T08:05:02.230Z,12108.00
2023-05-14T08:06:03.215Z,10880.00
2023-05-14T08:07:02.215Z,11248.00
2023-05-14T08:08:02.200Z,14432.00
2023-05-14T08:09:02.189Z,12432.00
2023-05-14T08:10:02.219Z,13772.00
2023-05-14T08:11:02.268Z,12988.00
2023-05-14T08:12:02.180Z,12784.00
2023-05-14T08:13:02.166Z,12672.00
2023-05-14T08:14:02.171Z,12828.00
2023-05-14T08:15:02.219Z,12360.00
2023-05-14T08:16:02.223Z,11032.00
2023-05-14T08:17:02.309Z,11160.00
2023-05-14T08:18:02.265Z,12332.00
2023-05-14T08:19:03.056Z,12252.00
2023-05-14T08:20:02.179Z,10684.00
2023-05-14T08:21:03.518Z,12416.00
2023-05-14T08:22:03.098Z,10836.00
2023-05-14T08:23:02.097Z,11048.00
2023-05-14T08:24:02.092Z,12028.00
2023-05-14T08:25:02.083Z,10864.00
2023-05-14T08:26:02.230Z,11452.00
2023-05-14T08:27:02.054Z,11800.00
2023-05-14T08:28:02.050Z,12004.00
2023-05-14T08:29:02.044Z,12060.00
2023-05-14T08:30:02.054Z,12412.00
2023-05-14T08:31:02.019Z,12124.00
2023-05-14T08:32:11.627Z,10868.00
2023-05-14T08:33:04.015Z,10464.00
2023-05-14T08:34:01.995Z,10416.00
2023-05-14T08:35:01.992Z,10124.00
2023-05-14T08:36:02.527Z,10320.00
2023-05-14T08:37:01.990Z,10544.00
2023-05-14T08:38:01.958Z,11620.00
2023-05-14T08:39:01.954Z,10536.00
2023-05-14T08:40:01.965Z,11460.00
2023-05-14T08:41:01.934Z,11720.00
2023-05-14T08:42:01.941Z,10364.00
2023-05-14T08:43:01.924Z,9536.00
2023-05-14T08:44:01.908Z,9904.00
2023-05-14T08:45:01.912Z,10504.00
2023-05-14T08:46:01.889Z,11528.00
2023-05-14T08:47:01.891Z,11612.00
2023-05-14T08:48:01.992Z,12272.00
2023-05-14T08:49:01.898Z,12032.00
2023-05-14T08:50:01.932Z,11940.00
2023-05-14T08:51:01.896Z,12216.00
2023-05-14T08:52:01.858Z,12412.00
2023-05-14T08:53:01.834Z,12084.00
2023-05-14T08:54:01.864Z,11612.00
2023-05-14T08:55:01.837Z,12600.00
2023-05-14T08:56:01.818Z,12780.00
2023-05-14T08:57:01.818Z,12820.00
2023-05-14T08:58:01.798Z,12264.00
2023-05-14T08:59:01.807Z,10808.00
2023-05-14T09:00:01.795Z,11624.00
2023-05-14T09:01:01.791Z,11788.00
2023-05-14T09:02:01.942Z,11532.00
2023-05-14T09:03:01.796Z,11128.00
2023-05-14T09:04:01.843Z,10136.00
2023-05-14T09:05:02.571Z,9712.00
2023-05-14T09:06:01.740Z,10676.00
2023-05-14T09:07:01.725Z,10652.00
2023-05-14T09:08:01.758Z,10000.00
2023-05-14T09:09:01.703Z,8600.00
2023-05-14T09:10:01.716Z,8320.00
2023-05-14T09:11:01.696Z,9356.00
2023-05-14T09:12:01.710Z,9472.00
2023-05-14T09:13:02.536Z,9836.00
2023-05-14T09:14:01.674Z,9828.00
2023-05-14T09:15:01.670Z,9812.00
2023-05-14T09:16:01.710Z,9464.00
2023-05-14T09:17:01.645Z,8816.00
2023-05-14T09:18:01.655Z,8136.00
2023-05-14T09:19:01.662Z,8260.00
2023-05-14T09:20:02.140Z,8068.00
2023-05-14T09:21:01.617Z,9328.00
2023-05-14T09:22:01.603Z,9972.00
2023-05-14T09:23:02.618Z,10760.00
2023-05-14T09:24:01.587Z,10100.00
2023-05-14T09:25:02.116Z,10336.00
2023-05-14T09:26:01.584Z,10572.00
2023-05-14T09:27:01.580Z,10248.00
2023-05-14T09:28:01.557Z,9864.00
2023-05-14T09:29:01.560Z,9832.00
2023-05-14T09:30:01.584Z,10240.00
2023-05-14T09:31:01.589Z,11800.00
2023-05-14T09:32:01.647Z,11668.00
2023-05-14T09:33:01.570Z,9816.00
2023-05-14T09:34:01.505Z,9728.00
2023-05-14T09:35:01.495Z,9664.00
2023-05-14T09:36:01.535Z,9632.00
2023-05-14T09:37:01.543Z,10992.00
2023-05-14T09:38:01.471Z,9960.00
2023-05-14T09:39:01.467Z,9732.00
2023-05-14T09:40:01.474Z,10240.00
2023-05-14T09:41:01.456Z,9664.00
2023-05-14T09:42:01.443Z,10904.00
2023-05-14T09:43:01.436Z,11420.00
2023-05-14T09:44:02.996Z,11592.00
2023-05-14T09:45:01.432Z,11568.00
2023-05-14T09:46:01.414Z,11848.00
2023-05-14T09:47:02.064Z,11932.00
2023-05-14T09:48:01.641Z,10700.00
2023-05-14T09:49:01.388Z,11580.00
2023-05-14T09:50:01.370Z,10344.00
2023-05-14T09:51:02.750Z,10024.00
2023-05-14T09:52:01.362Z,9832.00
2023-05-14T09:53:02.056Z,9684.00
2023-05-14T09:54:01.352Z,9484.00
2023-05-14T09:55:01.391Z,9352.00
2023-05-14T09:56:01.351Z,10628.00
2023-05-14T09:57:01.314Z,9992.00
2023-05-14T09:58:01.316Z,11124.00
2023-05-14T09:59:01.321Z,10288.00
2023-05-14T10:00:01.370Z,9236.00
2023-05-14T10:01:01.302Z,9820.00
2023-05-14T10:02:01.307Z,9560.00
2023-05-14T10:03:01.306Z,9640.00
2023-05-14T10:04:01.337Z,10100.00
2023-05-14T10:05:01.262Z,10696.00
2023-05-14T10:06:01.247Z,10904.00
2023-05-14T10:07:01.244Z,11000.00
2023-05-14T10:08:01.289Z,11508.00
2023-05-14T10:09:01.228Z,10560.00
2023-05-14T10:10:01.263Z,10300.00
2023-05-14T10:11:02.152Z,10092.00
2023-05-14T10:12:01.226Z,10060.00
2023-05-14T10:13:01.182Z,9956.00
2023-05-14T10:14:01.181Z,9728.00
2023-05-14T10:15:01.185Z,11108.00
2023-05-14T10:16:01.163Z,11136.00
2023-05-14T10:17:01.182Z,10864.00
2023-05-14T10:18:01.190Z,10484.00
2023-05-14T10:19:01.200Z,10780.00
2023-05-14T10:20:01.211Z,11936.00
2023-05-14T10:21:02.066Z,13132.00
2023-05-14T10:22:02.131Z,12656.00
2023-05-14T10:23:01.135Z,13208.00
2023-05-14T10:24:02.069Z,12828.00
2023-05-14T10:25:01.108Z,13388.00
2023-05-14T10:26:01.106Z,12548.00
2023-05-14T10:27:01.097Z,13408.00
2023-05-14T10:28:01.075Z,12700.00
2023-05-14T10:29:01.064Z,11716.00
2023-05-14T10:30:01.052Z,11704.00
2023-05-14T10:31:01.150Z,11924.00
2023-05-14T10:32:01.048Z,11980.00
2023-05-14T10:33:01.083Z,12068.00
2023-05-14T10:34:01.564Z,11836.00
2023-05-14T10:35:01.033Z,11832.00
2023-05-14T10:36:01.563Z,11780.00
2023-05-14T10:37:00.994Z,11980.00
2023-05-14T10:38:01.586Z,11984.00
2023-05-14T10:39:00.976Z,11508.00
2023-05-14T10:40:01.004Z,11444.00
2023-05-14T10:41:00.972Z,10856.00
2023-05-14T10:42:00.974Z,11128.00
2023-05-14T10:43:00.953Z,12444.00
2023-05-14T10:44:00.948Z,11864.00
2023-05-14T10:45:00.934Z,11396.00
2023-05-14T10:46:00.996Z,11148.00
2023-05-14T10:47:01.007Z,10900.00
2023-05-14T10:48:00.948Z,11088.00
2023-05-14T10:49:00.912Z,10784.00
2023-05-14T10:50:00.894Z,10864.00
2023-05-14T10:51:00.942Z,11208.00
2023-05-14T10:52:00.888Z,11428.00
2023-05-14T10:53:00.867Z,11336.00
2023-05-14T10:54:00.863Z,10964.00
2023-05-14T10:55:03.180Z,10508.00
2023-05-14T10:56:00.886Z,10348.00
2023-05-14T10:57:00.851Z,10256.00
2023-05-14T10:58:00.836Z,10420.00
2023-05-14T10:59:00.855Z,10616.00
2023-05-14T11:00:00.811Z,10772.00
2023-05-14T11:01:00.820Z,11908.00
2023-05-14T11:02:00.816Z,11808.00
2023-05-14T11:03:00.820Z,11580.00
2023-05-14T11:04:00.812Z,11336.00
2023-05-14T11:05:01.656Z,10204.00
2023-05-14T11:06:00.778Z,10404.00
2023-05-14T11:07:00.762Z,10528.00
2023-05-14T11:08:00.781Z,10532.00
2023-05-14T11:09:00.750Z,10076.00
2023-05-14T11:10:00.751Z,9680.00
2023-05-14T11:11:02.681Z,9564.00
2023-05-14T11:12:00.738Z,10084.00
2023-05-14T11:13:00.729Z,10444.00
2023-05-14T11:14:00.717Z,9488.00
2023-05-14T11:15:00.707Z,9432.00
2023-05-14T11:16:06.281Z,9324.00
2023-05-14T11:17:02.710Z,9292.00
2023-05-14T11:18:00.712Z,9208.00
2023-05-14T11:19:00.794Z,9212.00
2023-05-14T11:20:01.138Z,9380.00
2023-05-14T11:21:00.723Z,9572.00
2023-05-14T11:22:00.653Z,9856.00
2023-05-14T11:23:00.670Z,10148.00
2023-05-14T11:24:00.630Z,10484.00
2023-05-14T11:25:00.628Z,10832.00
2023-05-14T11:26:00.640Z,11664.00
2023-05-14T11:27:00.662Z,11668.00
2023-05-14T11:28:00.670Z,11768.00
2023-05-14T11:29:00.662Z,11800.00
2023-05-14T11:30:00.656Z,11760.00
2023-05-14T11:31:00.576Z,10684.00
2023-05-14T11:32:00.684Z,10372.00
2023-05-14T11:33:02.034Z,10220.00
2023-05-14T11:34:03.272Z,11104.00
2023-05-14T11:35:00.582Z,10396.00
2023-05-14T11:36:01.289Z,10396.00
2023-05-14T11:37:00.522Z,10612.00
2023-05-14T11:38:00.554Z,10332.00
2023-05-14T11:39:00.534Z,9788.00
2023-05-14T11:40:00.498Z,9424.00
2023-05-14T11:41:00.492Z,9592.00
2023-05-14T11:42:00.488Z,9560.00
2023-05-14T11:43:00.540Z,9368.00
2023-05-14T11:44:00.537Z,8636.00
2023-05-14T11:45:00.553Z,8964.00
2023-05-14T11:46:00.578Z,9304.00
2023-05-14T11:47:00.452Z,9324.00
2023-05-14T11:48:00.448Z,9088.00
2023-05-14T11:49:00.437Z,8568.00
2023-05-14T11:50:00.431Z,8128.00
2023-05-14T11:51:00.441Z,8200.00
2023-05-14T11:53:08.060Z,8044.00
2023-05-14T11:54:08.070Z,8248.00
2023-05-14T11:55:08.048Z,8520.00
2023-05-14T11:56:09.989Z,8816.00
2023-05-14T11:57:10.120Z,9020.00
2023-05-14T11:58:09.132Z,8956.00
2023-05-14T11:59:09.110Z,8816.00
2023-05-14T12:00:09.113Z,9164.00
2023-05-14T12:01:09.095Z,9556.00
2023-05-14T12:02:09.122Z,9888.00
2023-05-14T12:03:09.136Z,9888.00
2023-05-14T12:04:09.117Z,9576.00
2023-05-14T12:05:09.136Z,9456.00
2023-05-14T12:06:09.057Z,9304.00
2023-05-14T12:07:09.053Z,8980.00
2023-05-14T12:08:09.966Z,8616.00
2023-05-14T12:09:09.072Z,8328.00
2023-05-14T12:10:09.032Z,8284.00
2023-05-14T12:11:09.005Z,8448.00
2023-05-14T12:12:09.004Z,8408.00
2023-05-14T12:13:09.005Z,8172.00
2023-05-14T12:14:09.027Z,8032.00
2023-05-14T12:15:09.985Z,8080.00
2023-05-14T12:16:09.031Z,8520.00
2023-05-14T12:17:08.956Z,8156.00
2023-05-14T12:18:22.965Z,8388.00
2023-05-14T12:19:10.997Z,8576.00
2023-05-14T12:20:08.940Z,8680.00